sensor_id;sensor_type;location;lat;lon;timestamp;pressure;altitude;pressure_sealevel;temperature;humidity
72950;BME280;64868;45.710;9.590;2023-03-23T00:01:35;98813.84;;;12.08;55.20
72950;BME280;64868;45.710;9.590;2023-03-23T00:04:07;98827.75;;;12.16;54.46
72950;BME280;64868;45.710;9.590;2023-03-23T00:06:40;98822.81;;;11.87;55.20
72950;BME280;64868;45.710;9.590;2023-03-23T00:09:08;98794.97;;;11.60;55.97
72950;BME280;64868;45.710;9.590;2023-03-23T00:11:43;98824.66;;;11.64;56.23
72950;BME280;64868;45.710;9.590;2023-03-23T00:14:15;98826.00;;;11.59;56.36
72950;BME280;64868;45.710;9.590;2023-03-23T00:16:43;98821.28;;;11.50;57.89
72950;BME280;64868;45.710;9.590;2023-03-23T00:19:14;98824.88;;;11.61;56.24
72950;BME280;64868;45.710;9.590;2023-03-23T00:21:47;98818.69;;;11.59;56.16
72950;BME280;64868;45.710;9.590;2023-03-23T00:24:20;98777.34;;;11.30;56.98
72950;BME280;64868;45.710;9.590;2023-03-23T00:26:53;98810.22;;;11.51;57.37
72950;BME280;64868;45.710;9.590;2023-03-23T00:29:23;98825.66;;;11.63;56.12
72950;BME280;64868;45.710;9.590;2023-03-23T00:31:54;98801.94;;;11.53;56.40
72950;BME280;64868;45.710;9.590;2023-03-23T00:34:24;98801.94;;;11.53;56.51
72950;BME280;64868;45.710;9.590;2023-03-23T00:36:57;98824.88;;;11.50;56.54
72950;BME280;64868;45.710;9.590;2023-03-23T00:39:30;98818.69;;;11.48;56.98
72950;BME280;64868;45.710;9.590;2023-03-23T00:42:03;98823.88;;;11.51;56.59
72950;BME280;64868;45.710;9.590;2023-03-23T00:44:35;98810.09;;;11.41;57.40
72950;BME280;64868;45.710;9.590;2023-03-23T00:47:08;98803.03;;;11.39;56.59
72950;BME280;64868;45.710;9.590;2023-03-23T00:49:40;98802.78;;;11.42;56.28
72950;BME280;64868;45.710;9.590;2023-03-23T00:52:09;98809.50;;;11.49;57.09
72950;BME280;64868;45.710;9.590;2023-03-23T00:54:42;98803.53;;;11.44;56.95
72950;BME280;64868;45.710;9.590;2023-03-23T00:57:14;98814.44;;;11.55;57.02
72950;BME280;64868;45.710;9.590;2023-03-23T00:59:47;98804.91;;;11.50;56.95
72950;BME280;64868;45.710;9.590;2023-03-23T01:02:17;98805.28;;;11.45;57.17
72950;BME280;64868;45.710;9.590;2023-03-23T01:04:50;98775.63;;;11.29;56.26
72950;BME280;64868;45.710;9.590;2023-03-23T01:07:20;98802.53;;;11.45;56.79
72950;BME280;64868;45.710;9.590;2023-03-23T01:09:53;98779.44;;;11.27;57.39
72950;BME280;64868;45.710;9.590;2023-03-23T01:12:25;98777.47;;;11.17;56.95
72950;BME280;64868;45.710;9.590;2023-03-23T01:14:55;98781.06;;;11.18;57.18
72950;BME280;64868;45.710;9.590;2023-03-23T01:17:23;98792.09;;;11.28;57.54
72950;BME280;64868;45.710;9.590;2023-03-23T01:19:53;98773.72;;;11.18;57.68
72950;BME280;64868;45.710;9.590;2023-03-23T01:22:26;98755.09;;;11.12;57.00
72950;BME280;64868;45.710;9.590;2023-03-23T01:24:58;98782.44;;;11.35;57.37
72950;BME280;64868;45.710;9.590;2023-03-23T01:27:31;98752.38;;;11.12;56.60
72950;BME280;64868;45.710;9.590;2023-03-23T01:30:01;98775.84;;;11.26;56.82
72950;BME280;64868;45.710;9.590;2023-03-23T01:32:32;98756.75;;;11.15;56.96
72950;BME280;64868;45.710;9.590;2023-03-23T01:35:04;98741.22;;;11.15;57.07
72950;BME280;64868;45.710;9.590;2023-03-23T01:37:35;98753.38;;;11.11;57.99
72950;BME280;64868;45.710;9.590;2023-03-23T01:40:05;98759.22;;;11.07;57.44
72950;BME280;64868;45.710;9.590;2023-03-23T01:42:36;98754.38;;;10.99;58.11
72950;BME280;64868;45.710;9.590;2023-03-23T01:45:31;98749.97;;;10.85;58.45
72950;BME280;64868;45.710;9.590;2023-03-23T01:48:05;98762.66;;;10.98;57.86
72950;BME280;64868;45.710;9.590;2023-03-23T01:50:44;98746.22;;;10.75;58.25
72950;BME280;64868;45.710;9.590;2023-03-23T01:53:19;98750.44;;;10.79;58.90
72950;BME280;64868;45.710;9.590;2023-03-23T01:55:52;98733.72;;;10.73;59.27
72950;BME280;64868;45.710;9.590;2023-03-23T01:58:28;98748.63;;;10.80;58.47
72950;BME280;64868;45.710;9.590;2023-03-23T02:01:04;98727.25;;;10.62;58.69
72950;BME280;64868;45.710;9.590;2023-03-23T02:03:37;98754.31;;;10.77;59.03
72950;BME280;64868;45.710;9.590;2023-03-23T02:06:08;98737.69;;;10.68;58.47
72950;BME280;64868;45.710;9.590;2023-03-23T02:08:40;98729.09;;;10.62;59.02
72950;BME280;64868;45.710;9.590;2023-03-23T02:11:16;98731.34;;;10.68;59.06
72950;BME280;64868;45.710;9.590;2023-03-23T02:13:47;98719.94;;;10.63;59.26
72950;BME280;64868;45.710;9.590;2023-03-23T02:16:29;98721.28;;;10.57;59.08
72950;BME280;64868;45.710;9.590;2023-03-23T02:25:19;98736.56;;;10.71;59.50
72950;BME280;64868;45.710;9.590;2023-03-23T02:31:09;98733.75;;;10.84;58.70
72950;BME280;64868;45.710;9.590;2023-03-23T02:34:17;98733.13;;;10.80;58.22
72950;BME280;64868;45.710;9.590;2023-03-23T02:36:52;98733.13;;;10.80;58.43
72950;BME280;64868;45.710;9.590;2023-03-23T02:39:40;98735.22;;;10.77;58.91
72950;BME280;64868;45.710;9.590;2023-03-23T02:42:17;98709.16;;;10.61;58.89
72950;BME280;64868;45.710;9.590;2023-03-23T02:44:51;98715.88;;;10.68;58.60
72950;BME280;64868;45.710;9.590;2023-03-23T02:47:21;98718.09;;;10.75;58.25
72950;BME280;64868;45.710;9.590;2023-03-23T02:49:57;98733.72;;;10.73;58.34
72950;BME280;64868;45.710;9.590;2023-03-23T02:52:31;98727.28;;;10.74;58.04
72950;BME280;64868;45.710;9.590;2023-03-23T02:55:06;98727.50;;;10.70;58.56
72950;BME280;64868;45.710;9.590;2023-03-23T02:57:41;98727.91;;;10.77;58.44
72950;BME280;64868;45.710;9.590;2023-03-23T03:00:15;98724.56;;;10.85;58.41
72950;BME280;64868;45.710;9.590;2023-03-23T03:02:49;98729.53;;;10.91;57.80
72950;BME280;64868;45.710;9.590;2023-03-23T03:05:29;98736.59;;;10.93;58.07
72950;BME280;64868;45.710;9.590;2023-03-23T03:10:57;98733.25;;;10.90;58.43
72950;BME280;64868;45.710;9.590;2023-03-23T03:16:31;98734.00;;;10.81;58.72
72950;BME280;64868;45.710;9.590;2023-03-23T03:19:15;98731.00;;;10.73;59.11
72950;BME280;64868;45.710;9.590;2023-03-23T03:21:47;98742.00;;;10.71;59.16
72950;BME280;64868;45.710;9.590;2023-03-23T03:24:20;98727.78;;;10.79;59.00
72950;BME280;64868;45.710;9.590;2023-03-23T03:26:55;98729.00;;;10.75;58.75
72950;BME280;64868;45.710;9.590;2023-03-23T03:29:31;98725.03;;;10.67;59.51
72950;BME280;64868;45.710;9.590;2023-03-23T03:32:05;98733.72;;;10.73;58.83
72950;BME280;64868;45.710;9.590;2023-03-23T03:34:40;98732.72;;;10.74;59.40
72950;BME280;64868;45.710;9.590;2023-03-23T03:37:13;98749.22;;;10.72;58.91
72950;BME280;64868;45.710;9.590;2023-03-23T03:39:46;98728.00;;;10.76;58.84
72950;BME280;64868;45.710;9.590;2023-03-23T03:42:18;98723.50;;;10.52;59.23
72950;BME280;64868;45.710;9.590;2023-03-23T03:44:51;98756.22;;;10.63;59.33
72950;BME280;64868;45.710;9.590;2023-03-23T03:47:21;98727.66;;;10.45;58.92
72950;BME280;64868;45.710;9.590;2023-03-23T03:49:54;98759.75;;;10.77;58.20
72950;BME280;64868;45.710;9.590;2023-03-23T03:52:26;98756.63;;;10.70;58.63
72950;BME280;64868;45.710;9.590;2023-03-23T03:54:59;98755.56;;;10.84;58.49
72950;BME280;64868;45.710;9.590;2023-03-23T03:57:32;98752.09;;;10.82;57.93
72950;BME280;64868;45.710;9.590;2023-03-23T04:00:05;98754.69;;;10.83;57.70
72950;BME280;64868;45.710;9.590;2023-03-23T04:02:49;98758.16;;;10.85;58.05
72950;BME280;64868;45.710;9.590;2023-03-23T04:05:23;98761.66;;;10.87;58.02
72950;BME280;64868;45.710;9.590;2023-03-23T04:07:54;98744.03;;;10.80;58.73
72950;BME280;64868;45.710;9.590;2023-03-23T04:10:29;98765.47;;;10.85;58.68
72950;BME280;64868;45.710;9.590;2023-03-23T04:13:01;98748.81;;;10.65;58.44
72950;BME280;64868;45.710;9.590;2023-03-23T04:15:32;98751.00;;;10.60;59.05
72950;BME280;64868;45.710;9.590;2023-03-23T04:18:02;98756.84;;;10.56;59.18
72950;BME280;64868;45.710;9.590;2023-03-23T04:20:34;98757.69;;;10.56;59.29
72950;BME280;64868;45.710;9.590;2023-03-23T04:23:05;98764.19;;;10.66;58.67
72950;BME280;64868;45.710;9.590;2023-03-23T04:25:37;98751.38;;;10.56;58.52
72950;BME280;64868;45.710;9.590;2023-03-23T04:28:07;98776.50;;;10.72;58.73
72950;BME280;64868;45.710;9.590;2023-03-23T04:30:38;98773.00;;;10.70;58.65
72950;BME280;64868;45.710;9.590;2023-03-23T04:33:10;98774.22;;;10.66;58.89
72950;BME280;64868;45.710;9.590;2023-03-23T04:35:44;98782.63;;;10.63;58.92
72950;BME280;64868;45.710;9.590;2023-03-23T04:38:17;98779.03;;;10.62;59.01
72950;BME280;64868;45.710;9.590;2023-03-23T04:40:50;98780.38;;;10.57;59.65
72950;BME280;64868;45.710;9.590;2023-03-23T04:43:26;98786.53;;;10.47;59.45
72950;BME280;64868;45.710;9.590;2023-03-23T04:45:59;98784.03;;;10.44;60.08
72950;BME280;64868;45.710;9.590;2023-03-23T04:48:33;98771.00;;;10.37;60.79
72950;BME280;64868;45.710;9.590;2023-03-23T04:51:05;98753.81;;;10.23;60.31
72950;BME280;64868;45.710;9.590;2023-03-23T04:53:38;98775.94;;;10.32;61.10
72950;BME280;64868;45.710;9.590;2023-03-23T04:56:08;98765.41;;;10.27;60.35
72950;BME280;64868;45.710;9.590;2023-03-23T04:58:39;98778.66;;;10.32;60.59
72950;BME280;64868;45.710;9.590;2023-03-23T05:01:09;98796.66;;;10.34;60.67
72950;BME280;64868;45.710;9.590;2023-03-23T05:03:34;98796.22;;;10.28;60.86
72950;BME280;64868;45.710;9.590;2023-03-23T05:06:05;98791.97;;;10.23;60.83
72950;BME280;64868;45.710;9.590;2023-03-23T05:08:33;98785.00;;;10.19;60.44
72950;BME280;64868;45.710;9.590;2023-03-23T05:11:03;98784.34;;;10.29;60.36
72950;BME280;64868;45.710;9.590;2023-03-23T05:13:36;98796.13;;;10.53;59.30
72950;BME280;64868;45.710;9.590;2023-03-23T05:16:08;98786.34;;;10.38;59.48
72950;BME280;64868;45.710;9.590;2023-03-23T05:18:41;98788.75;;;10.42;60.11
72950;BME280;64868;45.710;9.590;2023-03-23T05:21:11;98778.19;;;10.38;59.55
72950;BME280;64868;45.710;9.590;2023-03-23T05:23:42;98776.72;;;10.45;59.09
72950;BME280;64868;45.710;9.590;2023-03-23T05:26:15;98793.91;;;10.58;58.34
72950;BME280;64868;45.710;9.590;2023-03-23T05:28:47;98775.09;;;10.66;58.11
72950;BME280;64868;45.710;9.590;2023-03-23T05:31:18;98776.09;;;10.65;58.05
72950;BME280;64868;45.710;9.590;2023-03-23T05:33:51;98782.16;;;10.69;57.69
72950;BME280;64868;45.710;9.590;2023-03-23T05:36:21;98789.00;;;10.75;58.40
72950;BME280;64868;45.710;9.590;2023-03-23T05:38:52;98789.44;;;10.92;57.56
72950;BME280;64868;45.710;9.590;2023-03-23T05:41:25;98792.28;;;11.02;57.04
72950;BME280;64868;45.710;9.590;2023-03-23T05:43:58;98785.56;;;10.84;56.87
72950;BME280;64868;45.710;9.590;2023-03-23T05:46:30;98767.06;;;10.76;58.20
72950;BME280;64868;45.710;9.590;2023-03-23T05:49:03;98768.91;;;10.76;57.45
72950;BME280;64868;45.710;9.590;2023-03-23T05:51:36;98807.66;;;10.92;57.63
72950;BME280;64868;45.710;9.590;2023-03-23T05:54:08;98796.16;;;11.00;57.77
72950;BME280;64868;45.710;9.590;2023-03-23T05:56:41;98797.63;;;11.04;58.79
72950;BME280;64868;45.710;9.590;2023-03-23T05:59:11;98781.41;;;11.13;58.03
72950;BME280;64868;45.710;9.590;2023-03-23T06:01:44;98771.47;;;11.12;56.63
72950;BME280;64868;45.710;9.590;2023-03-23T06:04:14;98784.50;;;11.20;57.04
72950;BME280;64868;45.710;9.590;2023-03-23T06:06:46;98791.22;;;11.27;55.88
72950;BME280;64868;45.710;9.590;2023-03-23T06:09:14;98785.41;;;11.32;56.74
72950;BME280;64868;45.710;9.590;2023-03-23T06:11:46;98804.28;;;11.57;55.57
72950;BME280;64868;45.710;9.590;2023-03-23T06:14:20;98810.22;;;11.62;55.03
72950;BME280;64868;45.710;9.590;2023-03-23T06:16:48;98816.31;;;11.66;55.00
72950;BME280;64868;45.710;9.590;2023-03-23T06:19:21;98795.47;;;11.65;55.38
72950;BME280;64868;45.710;9.590;2023-03-23T06:21:53;98819.66;;;11.81;55.95
72950;BME280;64868;45.710;9.590;2023-03-23T06:24:25;98800.44;;;11.82;55.22
72950;BME280;64868;45.710;9.590;2023-03-23T06:26:58;98824.53;;;12.00;54.08
72950;BME280;64868;45.710;9.590;2023-03-23T06:29:27;98796.34;;;11.99;53.86
72950;BME280;64868;45.710;9.590;2023-03-23T06:32:00;98822.78;;;12.21;53.58
72950;BME280;64868;45.710;9.590;2023-03-23T06:34:30;98806.38;;;12.21;54.39
72950;BME280;64868;45.710;9.590;2023-03-23T06:37:02;98816.72;;;12.50;54.03
72950;BME280;64868;45.710;9.590;2023-03-23T06:39:35;98819.03;;;12.65;53.93
72950;BME280;64868;45.710;9.590;2023-03-23T06:42:11;98801.44;;;12.79;51.74
72950;BME280;64868;45.710;9.590;2023-03-23T06:44:41;98823.03;;;13.14;51.37
72950;BME280;64868;45.710;9.590;2023-03-23T06:47:11;98824.25;;;13.43;51.07
72950;BME280;64868;45.710;9.590;2023-03-23T06:49:42;98804.50;;;13.70;49.83
72950;BME280;64868;45.710;9.590;2023-03-23T06:52:15;98795.25;;;14.01;48.04
72950;BME280;64868;45.710;9.590;2023-03-23T06:54:43;98794.78;;;14.46;47.50
72950;BME280;64868;45.710;9.590;2023-03-23T06:57:13;98810.47;;;15.04;45.91
72950;BME280;64868;45.710;9.590;2023-03-23T06:59:46;98826.25;;;16.61;42.59
72950;BME280;64868;45.710;9.590;2023-03-23T07:02:17;98837.56;;;19.10;37.36
72950;BME280;64868;45.710;9.590;2023-03-23T07:04:47;98832.53;;;19.54;36.01
72950;BME280;64868;45.710;9.590;2023-03-23T07:07:20;98835.25;;;20.59;33.51
72950;BME280;64868;45.710;9.590;2023-03-23T07:09:47;98833.28;;;18.22;36.29
72950;BME280;64868;45.710;9.590;2023-03-23T07:12:20;98828.00;;;15.60;42.13
72950;BME280;64868;45.710;9.590;2023-03-23T07:14:53;98847.16;;;14.74;45.17
72950;BME280;64868;45.710;9.590;2023-03-23T07:17:25;98833.28;;;14.25;46.59
72950;BME280;64868;45.710;9.590;2023-03-23T07:19:58;98844.09;;;14.27;47.33
72950;BME280;64868;45.710;9.590;2023-03-23T07:22:28;98833.72;;;14.21;47.34
72950;BME280;64868;45.710;9.590;2023-03-23T07:24:58;98826.84;;;13.96;47.57
72950;BME280;64868;45.710;9.590;2023-03-23T07:27:31;98848.88;;;14.25;46.65
72950;BME280;64868;45.710;9.590;2023-03-23T07:30:03;98853.72;;;14.11;47.68
72950;BME280;64868;45.710;9.590;2023-03-23T07:32:31;98849.19;;;13.91;47.71
72950;BME280;64868;45.710;9.590;2023-03-23T07:35:03;98862.78;;;14.02;48.42
72950;BME280;64868;45.710;9.590;2023-03-23T07:37:36;98875.22;;;14.06;48.38
72950;BME280;64868;45.710;9.590;2023-03-23T07:40:07;98848.97;;;14.14;47.42
72950;BME280;64868;45.710;9.590;2023-03-23T07:42:46;98842.16;;;13.98;48.39
72950;BME280;64868;45.710;9.590;2023-03-23T07:45:14;98866.91;;;14.27;48.30
72950;BME280;64868;45.710;9.590;2023-03-23T07:47:42;98859.63;;;14.47;48.53
72950;BME280;64868;45.710;9.590;2023-03-23T07:50:15;98868.06;;;14.84;48.01
72950;BME280;64868;45.710;9.590;2023-03-23T07:52:47;98850.59;;;14.76;47.94
72950;BME280;64868;45.710;9.590;2023-03-23T07:55:21;98860.44;;;14.98;48.31
72950;BME280;64868;45.710;9.590;2023-03-23T07:57:54;98872.72;;;15.42;46.49
72950;BME280;64868;45.710;9.590;2023-03-23T08:00:23;98881.03;;;15.99;45.44
72950;BME280;64868;45.710;9.590;2023-03-23T08:02:57;98889.56;;;17.78;41.15
72950;BME280;64868;45.710;9.590;2023-03-23T08:05:30;98849.97;;;20.12;36.53
72950;BME280;64868;45.710;9.590;2023-03-23T08:08:02;98894.13;;;24.61;28.43
72950;BME280;64868;45.710;9.590;2023-03-23T08:10:32;98868.78;;;24.97;27.08
72950;BME280;64868;45.710;9.590;2023-03-23T08:13:03;98895.94;;;22.23;30.71
72950;BME280;64868;45.710;9.590;2023-03-23T08:15:36;98891.63;;;20.10;35.08
72950;BME280;64868;45.710;9.590;2023-03-23T08:18:07;98877.03;;;18.94;37.85
72950;BME280;64868;45.710;9.590;2023-03-23T08:20:40;98884.03;;;19.31;36.93
72950;BME280;64868;45.710;9.590;2023-03-23T08:23:12;98901.97;;;19.02;38.07
72950;BME280;64868;45.710;9.590;2023-03-23T08:25:45;98891.63;;;18.70;38.85
72950;BME280;64868;45.710;9.590;2023-03-23T08:28:18;98907.00;;;20.21;36.33
72950;BME280;64868;45.710;9.590;2023-03-23T08:30:50;98905.19;;;21.00;34.82
72950;BME280;64868;45.710;9.590;2023-03-23T08:33:18;98874.00;;;20.98;34.93
72950;BME280;64868;45.710;9.590;2023-03-23T08:35:54;98884.53;;;20.80;35.01
72950;BME280;64868;45.710;9.590;2023-03-23T08:38:25;98902.56;;;21.61;34.05
72950;BME280;64868;45.710;9.590;2023-03-23T08:40:58;98891.88;;;23.14;31.14
72950;BME280;64868;45.710;9.590;2023-03-23T08:43:33;98910.88;;;23.47;30.39
72950;BME280;64868;45.710;9.590;2023-03-23T08:46:05;98905.50;;;25.62;27.18
72950;BME280;64868;45.710;9.590;2023-03-23T08:48:39;98908.69;;;27.50;24.06
72950;BME280;64868;45.710;9.590;2023-03-23T08:51:09;98905.66;;;27.06;25.22
72950;BME280;64868;45.710;9.590;2023-03-23T08:53:40;98909.81;;;24.68;28.08
72950;BME280;64868;45.710;9.590;2023-03-23T08:56:14;98906.03;;;22.24;32.35
72950;BME280;64868;45.710;9.590;2023-03-23T08:58:44;98914.75;;;21.98;33.38
72950;BME280;64868;45.710;9.590;2023-03-23T09:01:17;98899.13;;;22.49;32.62
72950;BME280;64868;45.710;9.590;2023-03-23T09:03:50;98912.94;;;24.87;28.86
72950;BME280;64868;45.710;9.590;2023-03-23T09:06:18;98906.03;;;27.61;24.55
72950;BME280;64868;45.710;9.590;2023-03-23T09:08:50;98923.50;;;31.80;19.77
72950;BME280;64868;45.710;9.590;2023-03-23T09:11:23;98937.44;;;34.64;16.77
72950;BME280;64868;45.710;9.590;2023-03-23T09:13:55;98936.31;;;36.68;14.49
72950;BME280;64868;45.710;9.590;2023-03-23T09:16:28;98925.50;;;32.76;18.19
72950;BME280;64868;45.710;9.590;2023-03-23T09:19:01;98915.47;;;32.34;19.17
72950;BME280;64868;45.710;9.590;2023-03-23T09:21:31;98928.44;;;33.63;17.22
72950;BME280;64868;45.710;9.590;2023-03-23T09:24:01;98927.41;;;34.51;17.05
72950;BME280;64868;45.710;9.590;2023-03-23T09:26:34;98928.63;;;33.13;18.27
72950;BME280;64868;45.710;9.590;2023-03-23T09:29:07;98939.41;;;36.41;15.46
72950;BME280;64868;45.710;9.590;2023-03-23T09:31:37;98941.94;;;36.27;15.29
72950;BME280;64868;45.710;9.590;2023-03-23T09:34:07;98939.13;;;36.94;14.09
72950;BME280;64868;45.710;9.590;2023-03-23T09:36:42;98935.13;;;36.28;15.28
72950;BME280;64868;45.710;9.590;2023-03-23T09:39:16;98928.34;;;36.96;14.41
72950;BME280;64868;45.710;9.590;2023-03-23T09:42:05;98919.91;;;34.07;16.41
72950;BME280;64868;45.710;9.590;2023-03-23T09:45:06;98919.03;;;33.80;16.74
72950;BME280;64868;45.710;9.590;2023-03-23T09:47:47;98927.69;;;34.86;15.79
72950;BME280;64868;45.710;9.590;2023-03-23T09:50:31;98918.22;;;35.66;15.46
72950;BME280;64868;45.710;9.590;2023-03-23T09:53:00;98923.25;;;36.57;14.38
72950;BME280;64868;45.710;9.590;2023-03-23T09:55:34;98926.81;;;38.49;13.19
72950;BME280;64868;45.710;9.590;2023-03-23T09:58:23;98930.56;;;39.07;12.54
72950;BME280;64868;45.710;9.590;2023-03-23T10:01:04;98923.53;;;37.82;13.31
72950;BME280;64868;45.710;9.590;2023-03-23T10:03:39;98914.22;;;37.66;13.65
72950;BME280;64868;45.710;9.590;2023-03-23T10:06:09;98914.38;;;37.05;13.83
72950;BME280;64868;45.710;9.590;2023-03-23T10:08:57;98906.72;;;36.08;15.19
72950;BME280;64868;45.710;9.590;2023-03-23T10:11:50;98922.09;;;36.94;14.63
72950;BME280;64868;45.710;9.590;2023-03-23T10:17:49;98914.88;;;35.16;15.66
72950;BME280;64868;45.710;9.590;2023-03-23T10:20:28;98917.53;;;34.53;16.23
72950;BME280;64868;45.710;9.590;2023-03-23T10:28:39;98923.91;;;34.71;16.24
72950;BME280;64868;45.710;9.590;2023-03-23T10:31:14;98906.91;;;33.18;17.66
72950;BME280;64868;45.710;9.590;2023-03-23T10:34:44;98913.03;;;30.65;20.51
72950;BME280;64868;45.710;9.590;2023-03-23T10:37:08;98877.09;;;30.78;20.05
72950;BME280;64868;45.710;9.590;2023-03-23T10:40:00;98890.38;;;29.22;21.18
72950;BME280;64868;45.710;9.590;2023-03-23T10:42:36;98881.88;;;24.55;28.99
72950;BME280;64868;45.710;9.590;2023-03-23T10:45:17;98876.13;;;23.00;31.92
72950;BME280;64868;45.710;9.590;2023-03-23T10:47:55;98869.28;;;21.99;32.72
72950;BME280;64868;45.710;9.590;2023-03-23T10:50:36;98870.94;;;21.47;34.80
72950;BME280;64868;45.710;9.590;2023-03-23T10:53:17;98854.16;;;21.18;35.32
72950;BME280;64868;45.710;9.590;2023-03-23T10:55:52;98848.13;;;20.83;35.03
72950;BME280;64868;45.710;9.590;2023-03-23T10:58:26;98865.53;;;21.92;33.87
72950;BME280;64868;45.710;9.590;2023-03-23T11:00:58;98851.78;;;21.37;32.52
72950;BME280;64868;45.710;9.590;2023-03-23T11:03:47;98868.69;;;22.03;32.85
72950;BME280;64868;45.710;9.590;2023-03-23T11:06:26;98864.81;;;22.13;31.34
72950;BME280;64868;45.710;9.590;2023-03-23T11:09:00;98863.94;;;21.28;33.09
72950;BME280;64868;45.710;9.590;2023-03-23T11:11:39;98862.25;;;20.96;34.09
72950;BME280;64868;45.710;9.590;2023-03-23T11:14:27;98861.31;;;20.81;33.71
72950;BME280;64868;45.710;9.590;2023-03-23T11:17:18;98855.03;;;21.18;32.87
72950;BME280;64868;45.710;9.590;2023-03-23T11:19:46;98845.44;;;21.90;32.65
72950;BME280;64868;45.710;9.590;2023-03-23T11:22:26;98819.91;;;22.09;31.48
72950;BME280;64868;45.710;9.590;2023-03-23T11:25:01;98851.88;;;22.64;31.23
72950;BME280;64868;45.710;9.590;2023-03-23T11:27:37;98836.44;;;22.91;31.19
72950;BME280;64868;45.710;9.590;2023-03-23T11:30:37;98844.97;;;22.75;31.46
72950;BME280;64868;45.710;9.590;2023-03-23T11:33:10;98829.97;;;23.05;31.32
72950;BME280;64868;45.710;9.590;2023-03-23T11:35:42;98829.63;;;22.94;31.99
72950;BME280;64868;45.710;9.590;2023-03-23T11:38:22;98833.84;;;23.47;31.18
72950;BME280;64868;45.710;9.590;2023-03-23T11:40:56;98827.56;;;24.16;30.63
72950;BME280;64868;45.710;9.590;2023-03-23T11:43:24;98815.59;;;23.02;31.63
72950;BME280;64868;45.710;9.590;2023-03-23T11:45:58;98821.53;;;22.18;32.52
72950;BME280;64868;45.710;9.590;2023-03-23T11:51:17;98838.97;;;21.59;32.93
72950;BME280;64868;45.710;9.590;2023-03-23T11:56:38;98806.09;;;20.71;33.49
72950;BME280;64868;45.710;9.590;2023-03-23T11:59:26;98804.94;;;21.43;33.04
72950;BME280;64868;45.710;9.590;2023-03-23T12:02:04;98805.09;;;22.31;33.22
72950;BME280;64868;45.710;9.590;2023-03-23T12:04:56;98817.75;;;22.85;32.68
72950;BME280;64868;45.710;9.590;2023-03-23T12:07:53;98821.34;;;22.20;32.37
72950;BME280;64868;45.710;9.590;2023-03-23T12:10:33;98812.78;;;21.31;33.80
72950;BME280;64868;45.710;9.590;2023-03-23T12:13:23;98814.28;;;20.96;35.82
72950;BME280;64868;45.710;9.590;2023-03-23T12:19:10;98809.06;;;21.99;32.97
72950;BME280;64868;45.710;9.590;2023-03-23T12:24:38;98797.66;;;21.94;32.67
72950;BME280;64868;45.710;9.590;2023-03-23T12:27:32;98783.38;;;22.12;32.78
72950;BME280;64868;45.710;9.590;2023-03-23T12:33:10;98791.78;;;23.64;30.11
72950;BME280;64868;45.710;9.590;2023-03-23T12:38:41;98782.16;;;23.17;31.12
72950;BME280;64868;45.710;9.590;2023-03-23T12:44:13;98760.97;;;22.58;32.15
72950;BME280;64868;45.710;9.590;2023-03-23T12:47:08;98763.31;;;22.76;31.60
72950;BME280;64868;45.710;9.590;2023-03-23T12:50:03;98750.03;;;23.14;31.54
72950;BME280;64868;45.710;9.590;2023-03-23T12:55:26;98748.56;;;23.40;31.22
72950;BME280;64868;45.710;9.590;2023-03-23T12:58:08;98759.16;;;22.87;30.83
72950;BME280;64868;45.710;9.590;2023-03-23T13:00:52;98757.81;;;22.46;32.57
72950;BME280;64868;45.710;9.590;2023-03-23T13:03:33;98748.94;;;22.36;31.71
72950;BME280;64868;45.710;9.590;2023-03-23T13:06:25;98742.16;;;22.24;31.82
72950;BME280;64868;45.710;9.590;2023-03-23T13:09:07;98752.47;;;22.81;32.24
72950;BME280;64868;45.710;9.590;2023-03-23T13:11:44;98749.69;;;22.96;31.71
72950;BME280;64868;45.710;9.590;2023-03-23T13:14:18;98721.19;;;22.57;31.52
72950;BME280;64868;45.710;9.590;2023-03-23T13:16:57;98731.22;;;22.07;31.73
72950;BME280;64868;45.710;9.590;2023-03-23T13:22:23;98723.28;;;21.60;31.27
72950;BME280;64868;45.710;9.590;2023-03-23T13:24:59;98715.25;;;21.80;30.71
72950;BME280;64868;45.710;9.590;2023-03-23T13:27:30;98739.47;;;21.86;31.34
72950;BME280;64868;45.710;9.590;2023-03-23T13:30:00;98730.34;;;22.07;31.01
72950;BME280;64868;45.710;9.590;2023-03-23T13:32:38;98712.50;;;22.46;30.24
72950;BME280;64868;45.710;9.590;2023-03-23T13:35:12;98717.75;;;21.90;30.95
72950;BME280;64868;45.710;9.590;2023-03-23T13:37:51;98720.72;;;22.18;30.43
72950;BME280;64868;45.710;9.590;2023-03-23T13:40:28;98706.50;;;22.27;29.45
72950;BME280;64868;45.710;9.590;2023-03-23T13:43:02;98701.44;;;22.67;29.93
72950;BME280;64868;45.710;9.590;2023-03-23T13:48:20;98709.00;;;23.44;29.47
72950;BME280;64868;45.710;9.590;2023-03-23T13:50:55;98712.03;;;23.21;30.78
72950;BME280;64868;45.710;9.590;2023-03-23T13:56:20;98705.66;;;23.77;29.24
72950;BME280;64868;45.710;9.590;2023-03-23T13:58:50;98713.81;;;24.68;27.49
72950;BME280;64868;45.710;9.590;2023-03-23T14:01:37;98711.13;;;25.21;27.87
72950;BME280;64868;45.710;9.590;2023-03-23T14:04:12;98692.09;;;24.02;29.35
72950;BME280;64868;45.710;9.590;2023-03-23T14:06:42;98710.28;;;24.04;29.15
72950;BME280;64868;45.710;9.590;2023-03-23T14:09:37;98693.78;;;23.40;30.08
72950;BME280;64868;45.710;9.590;2023-03-23T14:14:53;98692.25;;;22.88;31.20
72950;BME280;64868;45.710;9.590;2023-03-23T14:17:30;98681.53;;;22.85;31.17
72950;BME280;64868;45.710;9.590;2023-03-23T14:20:01;98688.03;;;22.92;31.32
72950;BME280;64868;45.710;9.590;2023-03-23T14:22:40;98674.81;;;22.79;31.08
72950;BME280;64868;45.710;9.590;2023-03-23T14:25:17;98665.16;;;22.54;31.31
72950;BME280;64868;45.710;9.590;2023-03-23T14:27:46;98689.25;;;22.68;32.19
72950;BME280;64868;45.710;9.590;2023-03-23T14:30:19;98679.16;;;22.46;32.82
72950;BME280;64868;45.710;9.590;2023-03-23T14:32:47;98658.00;;;22.88;31.58
72950;BME280;64868;45.710;9.590;2023-03-23T14:35:34;98679.84;;;23.34;29.65
72950;BME280;64868;45.710;9.590;2023-03-23T14:38:15;98692.31;;;24.07;29.50